createdAt,value
2019-05-03T00:01:00.058Z,94797.3
2019-05-03T00:02:04.474Z,94800.4
2019-05-03T00:03:07.484Z,94799.1
2019-05-03T00:04:11.834Z,94795
2019-05-03T00:05:14.478Z,94794.2
2019-05-03T00:06:16.628Z,94792.3
2019-05-03T00:07:19.053Z,94797.9
2019-05-03T00:08:23.214Z,94792.6
2019-05-03T00:09:25.631Z,94791.5
2019-05-03T00:10:27.798Z,94794.6
2019-05-03T00:11:30.223Z,94789.7
2019-05-03T00:12:35.350Z,94787.8
2019-05-03T00:13:37.608Z,94789.6
2019-05-03T00:14:42.112Z,94790.2
2019-05-03T00:15:44.403Z,94788.8
2019-05-03T00:16:47.072Z,94784
2019-05-03T00:17:49.654Z,94785.2
2019-05-03T00:18:53.645Z,94779.1
2019-05-03T00:19:55.786Z,94785.2
2019-05-03T00:20:57.934Z,94780
2019-05-03T00:22:01.938Z,94781.3
2019-05-03T00:23:05.164Z,94783.5
2019-05-03T00:24:07.507Z,94780.4
2019-05-03T00:25:10.274Z,94780.6
2019-05-03T00:26:15.453Z,94778.7
2019-05-03T00:27:17.594Z,94774.4
2019-05-03T00:28:21.559Z,94774.8
2019-05-03T00:29:24.069Z,94774.7
2019-05-03T00:30:26.503Z,94771.1
2019-05-03T00:31:28.928Z,94774.1
2019-05-03T00:32:33.180Z,94776.4
2019-05-03T00:33:35.358Z,94770.2
2019-05-03T00:34:37.502Z,94776.1
2019-05-03T00:35:42.159Z,94771.9
2019-05-03T00:36:44.988Z,94770.4
2019-05-03T00:37:47.763Z,94770.3
2019-05-03T00:38:50.172Z,94769.4
2019-05-03T00:39:54.591Z,94770.5
2019-05-03T00:40:57.000Z,94768
2019-05-03T00:41:59.422Z,94767.7
2019-05-03T00:43:04.880Z,94767.5
2019-05-03T00:44:07.322Z,94769
2019-05-03T00:45:09.753Z,94764.4
2019-05-03T00:46:14.030Z,94769.3
2019-05-03T00:47:16.153Z,94768
2019-05-03T00:48:18.573Z,94764.6
2019-05-03T00:49:20.190Z,94769.6
2019-05-03T00:50:24.038Z,94766.1
2019-05-03T00:51:26.470Z,94762.1
2019-05-03T00:52:31.692Z,94764.6
2019-05-03T00:53:33.988Z,94765
2019-05-03T00:54:36.459Z,94768
2019-05-03T00:55:38.332Z,94763.9
2019-05-03T00:57:46.561Z,94758.7
2019-05-03T00:58:48.980Z,94752.3
2019-05-03T00:59:52.745Z,94755.7
2019-05-03T01:00:55.041Z,94758.8
2019-05-03T01:01:57.466Z,94761.2
2019-05-03T01:02:59.616Z,94764.6
2019-05-03T01:04:04.072Z,94754.1
2019-05-03T01:05:06.503Z,94754.4
2019-05-03T01:06:09.093Z,94757.8
2019-05-03T01:07:14.110Z,94753.7
2019-05-03T01:08:16.529Z,94754.3
2019-05-03T01:09:18.689Z,94753.6
2019-05-03T01:10:23.026Z,94752.9
2019-05-03T01:11:26.059Z,94754.9
2019-05-03T01:12:28.488Z,94754.6
2019-05-03T01:13:32.495Z,94749
2019-05-03T01:14:36.547Z,94749.7
2019-05-03T01:15:38.780Z,94746.2
2019-05-03T01:16:43.402Z,94750.7
2019-05-03T01:17:45.536Z,94748.4
2019-05-03T01:18:47.147Z,94748.1
2019-05-03T01:19:49.274Z,94742.6
2019-05-03T01:20:53.513Z,94739.1
2019-05-03T01:21:55.942Z,94740.2
2019-05-03T01:22:58.276Z,94746.7
2019-05-03T01:24:02.616Z,94745.6
2019-05-03T01:25:04.763Z,94742.5
2019-05-03T01:26:07.095Z,94747.1
2019-05-03T01:27:09.687Z,94741
2019-05-03T01:28:13.683Z,94741.4
2019-05-03T01:29:16.303Z,94740.7
2019-05-03T01:30:18.448Z,94741.1
2019-05-03T01:32:27.403Z,94743.3
2019-05-03T01:33:29.281Z,94749.7
2019-05-03T01:35:36.682Z,94747.8
2019-05-03T01:36:38.833Z,94750.1
2019-05-03T01:37:43.393Z,94747
2019-05-03T01:38:45.548Z,94749
2019-05-03T01:39:47.967Z,94747.6
2019-05-03T01:40:52.081Z,94747.1
2019-05-03T01:41:54.619Z,94749.2
2019-05-03T01:42:56.855Z,94749.2
2019-05-03T01:43:59.021Z,94745.8
2019-05-03T01:45:03.467Z,94748
2019-05-03T01:46:05.893Z,94739
2019-05-03T01:47:09.125Z,94738.5
2019-05-03T01:48:13.742Z,94748
2019-05-03T01:49:16.753Z,94746.4
2019-05-03T01:50:19.166Z,94744.2
2019-05-03T01:51:23.431Z,94744.8
2019-05-03T01:52:25.591Z,94744.7
2019-05-03T01:53:28.037Z,94741
2019-05-03T01:54:32.001Z,94740.7
2019-05-03T01:56:40.009Z,94744.3
2019-05-03T01:57:48.684Z,94741.7
2019-05-03T01:58:53.383Z,94743
2019-05-03T01:59:55.826Z,94742.5
2019-05-03T02:00:57.982Z,94744.8
2019-05-03T02:02:02.144Z,94742.5
2019-05-03T02:03:04.420Z,94743.9
2019-05-03T02:04:06.841Z,94742.7
2019-05-03T02:05:09.452Z,94745
2019-05-03T02:06:13.363Z,94746.1
2019-05-03T02:07:15.523Z,94748.7
2019-05-03T02:08:17.948Z,94745.8
2019-05-03T02:09:22.183Z,94741.3
2019-05-03T02:10:24.837Z,94742.7
2019-05-03T02:11:27.864Z,94741.6
2019-05-03T02:12:31.923Z,94740.7
2019-05-03T02:13:34.484Z,94743
2019-05-03T02:14:37.242Z,94739.1
2019-05-03T02:15:39.641Z,94738.8
2019-05-03T02:16:44.529Z,94739.1
2019-05-03T02:17:47.159Z,94740
2019-05-03T02:18:49.311Z,94734.3
2019-05-03T02:19:54.191Z,94737
2019-05-03T02:20:56.335Z,94736.8
2019-05-03T02:21:59.192Z,94737.1
2019-05-03T02:23:03.193Z,94733.4
2019-05-03T02:24:05.943Z,94739.6
2019-05-03T02:25:08.362Z,94741.3
2019-05-03T02:26:12.907Z,94740.9
2019-05-03T02:27:15.339Z,94743.9
2019-05-03T02:28:17.479Z,94746.4
2019-05-03T02:29:19.623Z,94746.7
2019-05-03T02:31:28.832Z,94745.6
2019-05-03T02:32:33.787Z,94754.1
2019-05-03T02:33:35.963Z,94750.3
2019-05-03T02:34:38.383Z,94749.9
2019-05-03T02:36:46.029Z,94750.8
2019-05-03T02:37:48.771Z,94747.8
2019-05-03T02:39:57.727Z,94744.1
2019-05-03T02:43:11.005Z,94742.2
2019-05-03T02:45:19.104Z,94739.4
2019-05-03T02:46:21.263Z,94742
2019-05-03T02:47:23.442Z,94740.9
2019-05-03T02:48:30.362Z,94739.7
2019-05-03T02:50:38.915Z,94737.6
2019-05-03T02:51:41.339Z,94738.1
2019-05-03T02:53:49.707Z,94735.9
2019-05-03T02:54:52.313Z,94739.3
2019-05-03T02:58:09.821Z,94737
2019-05-03T02:59:12.246Z,94736.6
2019-05-03T03:00:19.149Z,94734.9
2019-05-03T03:01:21.590Z,94734.5
2019-05-03T03:03:29.713Z,94735.3
2019-05-03T03:04:31.607Z,94736.3
2019-05-03T03:05:35.991Z,94738.9
2019-05-03T03:06:38.664Z,94742.2
2019-05-03T03:07:41.990Z,94744.2
2019-05-03T03:09:49.033Z,94737.1
2019-05-03T03:10:51.459Z,94741.9
2019-05-03T03:12:59.073Z,94742.5
2019-05-03T03:14:01.510Z,94740
2019-05-03T03:16:09.133Z,94741.1
2019-05-03T03:17:11.313Z,94741.6
2019-05-03T03:19:19.099Z,94736.5
2019-05-03T03:20:20.987Z,94736.8
2019-05-03T03:21:25.828Z,94739.9
2019-05-03T03:22:29.711Z,94734
2019-05-03T03:23:32.131Z,94739.7
2019-05-03T03:24:39.039Z,94738
2019-05-03T03:25:41.451Z,94737
2019-05-03T03:27:48.600Z,94736.4
2019-05-03T03:28:51.014Z,94731.6
2019-05-03T03:30:59.288Z,94733.2
2019-05-03T03:32:01.771Z,94738.1
2019-05-03T03:34:10.841Z,94737.2
2019-05-03T03:37:27.641Z,94737.3
2019-05-03T03:38:29.787Z,94737.1
2019-05-03T03:39:31.981Z,94737.7
2019-05-03T03:41:40.390Z,94744.5
2019-05-03T03:43:49.309Z,94743.6
2019-05-03T03:44:52.233Z,94745.5
2019-05-03T03:46:59.665Z,94744.7
2019-05-03T03:48:02.142Z,94746.3
2019-05-03T03:49:08.924Z,94746.3
2019-05-03T03:50:11.088Z,94749.2
2019-05-03T03:52:19.359Z,94752.6
2019-05-03T03:53:21.785Z,94749.9
2019-05-03T03:55:29.391Z,94755.4
2019-05-03T03:56:31.821Z,94757.1
2019-05-03T03:59:08.284Z,94756.1
2019-05-03T04:00:10.425Z,94759.1
2019-05-03T04:01:15.219Z,94759.2
2019-05-03T04:02:19.273Z,94763.3
2019-05-03T04:03:21.418Z,94765.2
2019-05-03T04:05:29.327Z,94761.1
2019-05-03T04:06:31.754Z,94763.4
2019-05-03T04:08:39.393Z,94762.9
2019-05-03T04:09:41.820Z,94763.2
2019-05-03T04:11:49.911Z,94762.7
2019-05-03T04:12:52.339Z,94767.2
2019-05-03T04:14:59.749Z,94771
2019-05-03T04:16:02.130Z,94771.1
2019-05-03T04:17:09.624Z,94771.4
2019-05-03T04:18:11.774Z,94779.1
2019-05-03T04:19:14.202Z,94777.2
2019-05-03T04:20:21.099Z,94771.5
2019-05-03T04:22:28.967Z,94775.3
2019-05-03T04:23:31.101Z,94777.3
2019-05-03T04:25:39.083Z,94776.1
2019-05-03T04:26:41.296Z,94774.1
2019-05-03T04:28:49.181Z,94777.1
2019-05-03T04:29:51.944Z,94779.4
2019-05-03T04:31:59.347Z,94779.9
2019-05-03T04:33:05.653Z,94782.5
2019-05-03T04:34:09.348Z,94780.2
2019-05-03T04:35:12.674Z,94777.8
2019-05-03T04:36:19.301Z,94782.8
2019-05-03T04:37:21.752Z,94782.4
2019-05-03T04:39:29.158Z,94785.1
2019-05-03T04:40:31.589Z,94792.7
2019-05-03T04:42:39.205Z,94790.9
2019-05-03T04:43:42.217Z,94789.9
2019-05-03T04:45:49.809Z,94786.3
2019-05-03T04:47:57.923Z,94786.9
2019-05-03T04:49:00.266Z,94788.4
2019-05-03T04:51:08.898Z,94789.9
2019-05-03T04:52:11.054Z,94790.3
2019-05-03T04:53:15.926Z,94793.2
2019-05-03T04:54:19.655Z,94794.2
2019-05-03T04:55:22.075Z,94792.7
2019-05-03T04:59:39.647Z,94798.3
2019-05-03T05:00:41.802Z,94798.6
2019-05-03T05:02:50.630Z,94801
2019-05-03T05:04:59.305Z,94805.3
2019-05-03T05:06:01.910Z,94802.6
2019-05-03T05:08:09.445Z,94807.9
2019-05-03T05:09:11.862Z,94807.5
2019-05-03T05:11:20.018Z,94810.5
2019-05-03T05:13:28.563Z,94807.6
2019-05-03T05:14:31.322Z,94814.8
2019-05-03T05:18:12.897Z,94812.3
2019-05-03T05:19:19.784Z,94810.7
2019-05-03T05:20:21.936Z,94812.2
2019-05-03T05:22:29.335Z,94812.9
2019-05-03T05:23:32.297Z,94818.6
2019-05-03T05:24:36.884Z,94814
2019-05-03T05:25:39.324Z,94818.1
2019-05-03T05:26:44.508Z,94817.4
2019-05-03T05:28:52.181Z,94816.8
2019-05-03T05:29:58.805Z,94821.6
2019-05-03T05:31:01.232Z,94818.8
2019-05-03T05:32:05.174Z,94823.3
2019-05-03T05:33:07.708Z,94820.5
2019-05-03T05:34:10.217Z,94823.4
2019-05-03T05:35:14.267Z,94822.1
2019-05-03T05:36:17.723Z,94823.1
2019-05-03T05:37:20.873Z,94827.8
2019-05-03T05:38:25.456Z,94824.4
2019-05-03T05:39:27.954Z,94822.2
2019-05-03T05:40:30.584Z,94821.5
2019-05-03T05:41:34.587Z,94820.8
2019-05-03T05:42:37.931Z,94823.4
2019-05-03T05:43:40.747Z,94824.4
2019-05-03T05:44:45.153Z,94824.5
2019-05-03T05:45:47.508Z,94829.3
2019-05-03T05:46:49.659Z,94828.3
2019-05-03T05:47:52.101Z,94828.1
2019-05-03T05:48:56.939Z,94825.9
2019-05-03T05:51:05.505Z,94829.5
2019-05-03T05:52:08.083Z,94828
2019-05-03T05:53:10.727Z,94830.8
2019-05-03T05:54:15.806Z,94829.6
2019-05-03T05:55:18.232Z,94833.4
2019-05-03T05:56:20.385Z,94831.8
2019-05-03T05:57:21.992Z,94837.3
2019-05-03T05:59:29.126Z,94838
2019-05-03T06:00:33.041Z,94835.5
2019-05-03T06:01:39.680Z,94835.7
2019-05-03T06:02:42.433Z,94842
2019-05-03T06:03:47.010Z,94836.4
2019-05-03T06:04:49.313Z,94836.7
2019-05-03T06:05:51.473Z,94841.1
2019-05-03T06:06:55.809Z,94842.9
2019-05-03T06:07:57.395Z,94845.8
2019-05-03T06:08:59.811Z,94842.2
2019-05-03T06:10:02.255Z,94841.1
2019-05-03T06:11:06.020Z,94842.4
2019-05-03T06:12:08.803Z,94845.9
2019-05-03T06:13:10.957Z,94847.7
2019-05-03T06:14:15.177Z,94848.5
2019-05-03T06:15:17.711Z,94847.2
2019-05-03T06:16:20.356Z,94851
2019-05-03T06:17:25.478Z,94851.4
2019-05-03T06:18:28.119Z,94855.4
2019-05-03T06:19:30.530Z,94858.5
2019-05-03T06:20:34.814Z,94857.3
2019-05-03T06:21:37.016Z,94859.4
2019-05-03T06:22:39.968Z,94859
2019-05-03T06:23:45.086Z,94862.6
2019-05-03T06:24:47.854Z,94861.3
2019-05-03T06:25:51.099Z,94864.2
2019-05-03T06:26:55.582Z,94861.9
2019-05-03T06:27:57.921Z,94862.6
2019-05-03T06:29:00.637Z,94862.6
2019-05-03T06:30:04.863Z,94864.2
2019-05-03T06:31:08.258Z,94862.4
2019-05-03T06:32:10.673Z,94861.8
2019-05-03T06:33:14.883Z,94861.3
2019-05-03T06:34:17.037Z,94863.1
2019-05-03T06:35:19.461Z,94862.3
2019-05-03T06:36:21.324Z,94862.3
2019-05-03T06:37:25.668Z,94862.4
2019-05-03T06:38:28.103Z,94864.2
2019-05-03T06:39:30.504Z,94863.5
2019-05-03T06:40:32.678Z,94869
2019-05-03T06:41:36.477Z,94865
2019-05-03T06:44:48.901Z,94864
2019-05-03T06:45:52.048Z,94860.3
2019-05-03T06:48:05.968Z,94860.2
2019-05-03T06:51:21.804Z,94862.9
2019-05-03T06:53:29.409Z,94862.5
2019-05-03T06:56:45.003Z,94857.2
2019-05-03T06:58:52.699Z,94861
2019-05-03T06:59:56.773Z,94860
2019-05-03T07:00:59.110Z,94853.3
2019-05-03T07:02:01.544Z,94858.3
2019-05-03T07:03:05.821Z,94856
2019-05-03T07:04:08.600Z,94856.7
2019-05-03T07:05:11.232Z,94856.1
2019-05-03T07:07:19.113Z,94853.8
2019-05-03T07:08:21.259Z,94862.1
2019-05-03T07:09:25.510Z,94856.8
2019-05-03T07:10:28.137Z,94856.4
2019-05-03T07:11:30.550Z,94861
2019-05-03T07:12:32.989Z,94861.8
2019-05-03T07:13:38.224Z,94860.4
2019-05-03T07:14:40.761Z,94860.2
2019-05-03T07:15:42.942Z,94859.1
2019-05-03T07:16:47.172Z,94864.3
2019-05-03T07:17:49.387Z,94859.9
2019-05-03T07:18:51.837Z,94862.8
2019-05-03T07:19:56.178Z,94860.3
2019-05-03T07:20:58.457Z,94866.2
2019-05-03T07:22:00.606Z,94867
2019-05-03T07:23:05.788Z,94866.5
2019-05-03T07:24:07.936Z,94871
2019-05-03T07:25:10.093Z,94867.8
2019-05-03T07:26:14.906Z,94870
2019-05-03T07:27:17.831Z,94875.7
2019-05-03T07:28:20.162Z,94872.9
2019-05-03T07:29:22.309Z,94873.3
2019-05-03T07:30:54.947Z,94874.5
2019-05-03T07:31:57.542Z,94870.5
2019-05-03T07:32:59.434Z,94873.4
2019-05-03T07:34:02.503Z,94872.3
2019-05-03T07:35:07.142Z,94874.4
2019-05-03T07:36:10.343Z,94876.3
2019-05-03T07:37:12.230Z,94874.1
2019-05-03T07:38:16.448Z,94875.2
2019-05-03T07:39:18.326Z,94874.5
2019-05-03T07:40:21.343Z,94875.3
2019-05-03T07:42:28.935Z,94874.5
2019-05-03T07:43:31.437Z,94875.2
2019-05-03T07:45:39.004Z,94873.7
2019-05-03T07:46:41.156Z,94880.5
2019-05-03T07:47:45.192Z,94878.5
2019-05-03T07:48:47.683Z,94878.1
2019-05-03T07:49:50.100Z,94878.5
2019-05-03T07:50:54.525Z,94881.7
2019-05-03T07:51:57.068Z,94882.1
2019-05-03T07:52:59.437Z,94882.1
2019-05-03T07:54:04.513Z,94878.9
2019-05-03T07:55:07.063Z,94881.6
2019-05-03T07:56:09.480Z,94886
2019-05-03T07:57:11.636Z,94885
2019-05-03T07:59:19.042Z,94886
2019-05-03T08:00:21.460Z,94888.6
2019-05-03T08:01:26.083Z,94882.7
2019-05-03T08:02:29.173Z,94880.3
2019-05-03T08:03:31.606Z,94880.7
2019-05-03T08:04:36.255Z,94879.2
2019-05-03T08:05:38.881Z,94881.5
2019-05-03T08:06:41.517Z,94882.3
2019-05-03T08:08:49.926Z,94882.6
2019-05-03T08:09:52.540Z,94879.5
2019-05-03T08:10:56.523Z,94882.7
2019-05-03T08:11:58.944Z,94878.6
2019-05-03T08:13:01.362Z,94879.7
2019-05-03T08:14:05.442Z,94879.6
2019-05-03T08:15:07.881Z,94876.9
2019-05-03T08:16:10.306Z,94878.2
2019-05-03T08:17:12.743Z,94879.5
2019-05-03T08:18:17.780Z,94878.5
2019-05-03T08:19:23.226Z,94876.7
2019-05-03T08:20:26.602Z,94875.5
2019-05-03T08:21:29.114Z,94872.8
2019-05-03T08:22:32.002Z,94876.7
2019-05-03T08:23:37.102Z,94876.2
2019-05-03T08:24:39.254Z,94873.9
2019-05-03T08:25:41.691Z,94878.7
2019-05-03T08:26:46.293Z,94874.7
2019-05-03T08:27:48.723Z,94877.3
2019-05-03T08:28:50.872Z,94879.8
2019-05-03T08:29:52.738Z,94878.8
2019-05-03T08:30:55.841Z,94881.2
2019-05-03T08:31:57.994Z,94881.7
2019-05-03T08:33:00.406Z,94885.3
2019-05-03T08:35:09.415Z,94888.6
2019-05-03T08:36:11.829Z,94891.8
2019-05-03T08:37:16.310Z,94892.4
2019-05-03T08:38:18.678Z,94888
2019-05-03T08:39:21.095Z,94888.1
2019-05-03T08:40:25.488Z,94891
2019-05-03T08:41:27.902Z,94889.2
2019-05-03T08:42:30.524Z,94888.3
2019-05-03T08:43:32.674Z,94889.6
2019-05-03T08:44:38.433Z,94888.4
2019-05-03T08:45:40.844Z,94885.7
2019-05-03T08:47:48.795Z,94880.9
2019-05-03T08:48:51.216Z,94886.7
2019-05-03T08:49:55.841Z,94885.7
2019-05-03T08:50:58.270Z,94885.5
2019-05-03T08:52:00.416Z,94882.8
2019-05-03T08:54:08.784Z,94884.2
2019-05-03T08:55:11.204Z,94883.7
2019-05-03T08:56:15.477Z,94885.1
2019-05-03T08:57:17.795Z,94884.3
2019-05-03T08:58:20.248Z,94885.7
2019-05-03T09:00:27.641Z,94883.9
2019-05-03T09:01:30.060Z,94885.7
2019-05-03T09:02:34.451Z,94887.9
2019-05-03T09:05:48.222Z,94885.1
2019-05-03T09:06:50.376Z,94889.9
2019-05-03T09:07:54.741Z,94892.1
2019-05-03T09:08:58.780Z,94888.5
2019-05-03T09:10:00.665Z,94889.6
2019-05-03T09:12:08.458Z,94897.8
2019-05-03T09:13:10.874Z,94894.7
2019-05-03T09:14:15.396Z,94895.5
2019-05-03T09:15:17.825Z,94894.4
2019-05-03T09:16:20.485Z,94894.7
2019-05-03T09:17:24.430Z,94897.2
2019-05-03T09:18:27.614Z,94901
2019-05-03T09:19:30.048Z,94900.9
2019-05-03T09:21:39.636Z,94904.8
2019-05-03T09:22:42.266Z,94904.4
2019-05-03T09:23:46.330Z,94907.2
2019-05-03T09:24:48.491Z,94905.5
2019-05-03T09:25:50.915Z,94907.7
2019-05-03T09:26:56.051Z,94910.5
2019-05-03T09:27:58.474Z,94908.2
2019-05-03T09:29:00.911Z,94914.1
2019-05-03T09:30:06.140Z,94910.5
2019-05-03T09:31:09.325Z,94912.8
2019-05-03T09:32:11.195Z,94915.8
2019-05-03T09:33:15.968Z,94914.2
2019-05-03T09:34:18.378Z,94917.2
2019-05-03T09:36:26.895Z,94915.4
2019-05-03T09:37:29.049Z,94917
2019-05-03T09:38:31.464Z,94916.2
2019-05-03T09:39:35.221Z,94919.9
2019-05-03T09:40:37.594Z,94918.2
2019-05-03T09:41:41.370Z,94919.8
2019-05-03T09:42:46.530Z,94920.1
2019-05-03T09:43:49.440Z,94917
2019-05-03T09:46:00.304Z,94919.3
2019-05-03T09:47:02.724Z,94920.3
2019-05-03T09:48:09.636Z,94924.6
2019-05-03T09:50:17.194Z,94919.8
2019-05-03T09:51:19.620Z,94923.3
2019-05-03T09:52:22.017Z,94922.5
2019-05-03T09:53:28.650Z,94921.3
2019-05-03T09:54:30.514Z,94925.1
2019-05-03T09:55:32.946Z,94923
2019-05-03T09:56:37.405Z,94919.1
2019-05-03T09:57:46.308Z,94920.9
2019-05-03T09:58:48.738Z,94922.9
2019-05-03T10:00:57.024Z,94922.1
2019-05-03T10:01:59.445Z,94928.5
2019-05-03T10:03:01.624Z,94930.1
2019-05-03T10:04:06.455Z,94931
2019-05-03T10:05:09.481Z,94934.5
2019-05-03T10:07:17.854Z,94931
2019-05-03T10:08:20.006Z,94933.1
2019-05-03T10:09:22.440Z,94934.3
2019-05-03T10:10:26.321Z,94933.3
2019-05-03T10:11:28.481Z,94928.1
2019-05-03T10:12:30.904Z,94930.1
2019-05-03T10:14:38.521Z,94934.9
2019-05-03T10:15:40.950Z,94937.4
2019-05-03T10:17:48.970Z,94932.2
2019-05-03T10:18:51.131Z,94931.2
2019-05-03T10:20:25.082Z,94930.6
2019-05-03T10:21:27.995Z,94932.5
2019-05-03T10:22:30.421Z,94934.3
2019-05-03T10:24:39.575Z,94929.2
2019-05-03T10:25:41.990Z,94926.8
2019-05-03T10:26:46.528Z,94929.8
2019-05-03T10:27:48.864Z,94929.3
2019-05-03T10:28:51.284Z,94924.7
2019-05-03T10:30:59.880Z,94925.7
2019-05-03T10:32:02.272Z,94928.6
2019-05-03T10:34:10.014Z,94922.6
2019-05-03T10:35:14.966Z,94923.8
2019-05-03T10:36:18.844Z,94926.9
2019-05-03T10:37:24.128Z,94924
2019-05-03T10:38:26.580Z,94924.2
2019-05-03T10:39:29.008Z,94922.5
2019-05-03T10:40:32.031Z,94919.4
2019-05-03T10:41:36.300Z,94923.4
2019-05-03T10:42:39.407Z,94923.7
2019-05-03T10:43:41.300Z,94924.8
2019-05-03T10:45:49.316Z,94922
2019-05-03T10:46:51.474Z,94926.6
2019-05-03T10:47:53.339Z,94924.2
2019-05-03T10:48:57.382Z,94925.2
2019-05-03T10:49:59.543Z,94926.2
2019-05-03T10:51:01.967Z,94923.7
2019-05-03T10:52:08.862Z,94926.9
2019-05-03T10:53:11.004Z,94923
2019-05-03T10:54:15.568Z,94926.5
2019-05-03T10:55:17.995Z,94927.3
2019-05-03T10:57:26.288Z,94918.9
2019-05-03T10:58:28.916Z,94920
2019-05-03T10:59:31.321Z,94920.6
2019-05-03T11:01:04.541Z,94920.9
2019-05-03T11:02:07.094Z,94918.7
2019-05-03T11:03:09.722Z,94920.7
2019-05-03T11:04:11.883Z,94919.5
2019-05-03T11:05:16.102Z,94917.8
2019-05-03T11:06:18.547Z,94917.8
2019-05-03T11:07:20.979Z,94920.6
2019-05-03T11:08:23.140Z,94916
2019-05-03T11:09:27.457Z,94919.5
2019-05-03T11:10:30.671Z,94916.7
2019-05-03T11:11:35.006Z,94917.3
2019-05-03T11:12:37.763Z,94918.8
2019-05-03T11:13:40.185Z,94919.7
2019-05-03T11:14:42.620Z,94916.8
2019-05-03T11:15:49.517Z,94921.9
2019-05-03T11:16:51.674Z,94918.5
2019-05-03T11:18:08.510Z,94915.5
2019-05-03T11:19:10.117Z,94916.6
2019-05-03T11:20:14.348Z,94914.7
2019-05-03T11:22:25.910Z,94918.3
2019-05-03T11:23:27.572Z,94914.8
2019-05-03T11:24:29.487Z,94915.2
2019-05-03T11:25:34.243Z,94916.3
2019-05-03T11:26:36.878Z,94917
2019-05-03T11:27:39.793Z,94915.8
2019-05-03T11:28:42.201Z,94911.5
2019-05-03T11:29:46.772Z,94914.7
2019-05-03T11:31:55.997Z,94910.8
2019-05-03T11:32:58.425Z,94912.5
2019-05-03T11:34:00.866Z,94911.3
2019-05-03T11:35:05.498Z,94913.1
2019-05-03T11:36:07.633Z,94914.9
2019-05-03T11:37:10.066Z,94911.8
2019-05-03T11:38:16.201Z,94915.1
2019-05-03T11:39:18.615Z,94910.9
2019-05-03T11:40:21.072Z,94913.9
2019-05-03T11:42:28.496Z,94909.1
2019-05-03T11:43:30.912Z,94906.2
2019-05-03T11:44:33.366Z,94908.8
2019-05-03T11:45:37.431Z,94907.9
2019-05-03T11:46:40.485Z,94908.4
2019-05-03T11:47:45.425Z,94905.9
2019-05-03T11:48:50.108Z,94910.4
2019-05-03T11:49:54.341Z,94911.1
2019-05-03T11:50:56.794Z,94913.7
2019-05-03T11:51:59.755Z,94915.3
2019-05-03T11:53:05.571Z,94914
2019-05-03T11:54:08.158Z,94912.2
2019-05-03T11:56:16.292Z,94913.3
2019-05-03T11:57:18.469Z,94912.3
2019-05-03T11:58:20.911Z,94910.3
2019-05-03T11:59:23.077Z,94912.7
2019-05-03T12:00:30.163Z,94912.9
2019-05-03T12:01:32.242Z,94908.5
2019-05-03T12:02:34.916Z,94913
2019-05-03T12:03:37.509Z,94910.5
2019-05-03T12:04:39.946Z,94912.2
2019-05-03T12:05:42.367Z,94910.4
2019-05-03T12:06:47.004Z,94911.2
2019-05-03T12:07:48.896Z,94911.5
2019-05-03T12:08:51.318Z,94906.1
2019-05-03T12:09:55.707Z,94903.9
2019-05-03T12:13:08.731Z,94902.8
2019-05-03T12:14:10.644Z,94903.1
2019-05-03T12:15:12.522Z,94906.6
2019-05-03T12:18:29.352Z,94904.5
2019-05-03T12:21:53.361Z,94904.7
2019-05-03T12:23:01.100Z,94905
2019-05-03T12:24:11.669Z,94906.2
2019-05-03T12:25:22.303Z,94905.9
2019-05-03T12:27:36.392Z,94905
2019-05-03T12:28:38.836Z,94907.5
2019-05-03T12:29:41.286Z,94905.2
2019-05-03T12:30:45.867Z,94901
2019-05-03T12:31:49.128Z,94900.7
2019-05-03T12:32:51.311Z,94902.9
2019-05-03T12:34:59.106Z,94902.7
2019-05-03T12:36:01.274Z,94904.6
2019-05-03T12:38:09.276Z,94909.3
2019-05-03T12:40:16.703Z,94903.7
2019-05-03T12:41:19.994Z,94906.9
2019-05-03T12:42:25.458Z,94904.2
2019-05-03T12:43:28.370Z,94904.2
2019-05-03T12:44:31.427Z,94903.5
2019-05-03T12:45:36.310Z,94902.4
2019-05-03T12:46:39.540Z,94902.2
2019-05-03T12:47:42.080Z,94903.8
2019-05-03T12:48:46.418Z,94902.9
2019-05-03T12:49:49.228Z,94903.5
2019-05-03T12:50:54.362Z,94905.4
2019-05-03T12:51:57.518Z,94899.4
2019-05-03T12:52:59.684Z,94901
2019-05-03T12:54:04.681Z,94898.9
2019-05-03T12:55:08.943Z,94902.8
2019-05-03T12:57:17.575Z,94898.9
2019-05-03T12:58:20.579Z,94897.4
2019-05-03T12:59:22.472Z,94897.8
2019-05-03T13:00:26.777Z,94895.9
2019-05-03T13:02:34.960Z,94900.8
2019-05-03T13:03:39.459Z,94895.5
2019-05-03T13:05:49.194Z,94897.1
2019-05-03T13:06:51.539Z,94897.8
2019-05-03T13:07:55.690Z,94895.7
2019-05-03T13:08:58.236Z,94892.7
2019-05-03T13:10:00.680Z,94893.3
2019-05-03T13:11:05.040Z,94891.6
2019-05-03T13:12:07.509Z,94897.1
2019-05-03T13:13:09.673Z,94895.9
2019-05-03T13:14:12.117Z,94891.5
2019-05-03T13:15:15.908Z,94891.4
2019-05-03T13:16:18.078Z,94892.6
2019-05-03T13:17:20.509Z,94891.5
2019-05-03T13:18:25.089Z,94892.7
2019-05-03T13:19:29.122Z,94890.5
2019-05-03T13:20:31.543Z,94894.7
2019-05-03T13:21:36.052Z,94894
2019-05-03T13:22:38.491Z,94886.6
2019-05-03T13:23:40.673Z,94891.6
2019-05-03T13:24:44.686Z,94887.7
2019-05-03T13:25:47.308Z,94887.4
2019-05-03T13:26:49.907Z,94889
2019-05-03T13:27:52.337Z,94884.5
2019-05-03T13:30:02.553Z,94885.7
2019-05-03T13:31:07.697Z,94882.4
2019-05-03T13:32:10.145Z,94879.3
2019-05-03T13:33:12.043Z,94880.4
2019-05-03T13:34:16.347Z,94874.3
2019-05-03T13:35:19.000Z,94871.9
2019-05-03T13:36:21.260Z,94874.1
2019-05-03T13:38:29.149Z,94875.2
2019-05-03T13:39:31.589Z,94875.1
2019-05-03T13:41:39.423Z,94873
2019-05-03T13:43:48.695Z,94871.9
2019-05-03T13:44:50.859Z,94870.9
2019-05-03T13:45:55.496Z,94873.2
2019-05-03T13:46:59.649Z,94872.2
2019-05-03T13:48:04.812Z,94872.9
2019-05-03T13:49:10.454Z,94865.3
2019-05-03T13:50:14.956Z,94867.8
2019-05-03T13:51:17.692Z,94865.2
2019-05-03T13:52:20.675Z,94861
2019-05-03T13:53:25.324Z,94860.9
2019-05-03T13:54:28.294Z,94856.3
2019-05-03T13:55:30.154Z,94855.3
2019-05-03T13:56:32.796Z,94858.9
2019-05-03T13:57:36.954Z,94858.5
2019-05-03T13:58:39.030Z,94853.5
2019-05-03T13:59:41.438Z,94859.6
2019-05-03T14:00:45.755Z,94860
2019-05-03T14:01:49.389Z,94863.1
2019-05-03T14:02:51.536Z,94862.9
2019-05-03T14:03:55.527Z,94863.7
2019-05-03T14:04:57.948Z,94865.7
2019-05-03T14:06:00.128Z,94863.3
2019-05-03T14:07:04.869Z,94865.6
2019-05-03T14:08:07.008Z,94862.3
2019-05-03T14:09:09.430Z,94861
2019-05-03T14:10:11.883Z,94863.2
2019-05-03T14:11:16.466Z,94859.7
2019-05-03T14:12:19.055Z,94861
2019-05-03T14:13:21.493Z,94859.3
2019-05-03T14:14:25.808Z,94859.6
2019-05-03T14:15:28.403Z,94858.3
2019-05-03T14:16:30.563Z,94861.6
2019-05-03T14:17:32.455Z,94864.2
2019-05-03T14:18:36.770Z,94864.1
2019-05-03T14:19:38.933Z,94866.3
2019-05-03T14:20:41.106Z,94858.9
2019-05-03T14:21:43.292Z,94864.1
2019-05-03T14:22:45.462Z,94863.1
2019-05-03T14:23:47.636Z,94863.8
2019-05-03T14:24:50.103Z,94861.9
2019-05-03T14:25:52.266Z,94869.1
2019-05-03T14:26:56.655Z,94865.6
2019-05-03T14:30:10.048Z,94864.4
2019-05-03T14:31:14.380Z,94862.8
2019-05-03T14:33:22.443Z,94859.7
2019-05-03T14:34:27.197Z,94863.5
2019-05-03T14:35:29.625Z,94857.5
2019-05-03T14:36:31.775Z,94859.3
2019-05-03T14:38:39.185Z,94852.8
2019-05-03T14:39:41.617Z,94854.9
2019-05-03T14:40:48.401Z,94853.3
2019-05-03T14:41:50.265Z,94853
2019-05-03T14:44:04.862Z,94859.8
2019-05-03T14:45:09.006Z,94860.8
2019-05-03T14:46:11.466Z,94860.5
2019-05-03T14:47:16.402Z,94861.4
2019-05-03T14:48:19.657Z,94861.5
2019-05-03T14:49:22.332Z,94860.3
2019-05-03T14:50:26.675Z,94862.6
2019-05-03T14:51:29.127Z,94862.9
2019-05-03T14:52:31.735Z,94862.9
2019-05-03T14:53:36.201Z,94859.8
2019-05-03T14:54:38.354Z,94859.5
2019-05-03T14:55:40.249Z,94863.3
2019-05-03T14:56:42.709Z,94860.8
2019-05-03T14:57:49.611Z,94858.6
2019-05-03T14:59:21.364Z,94864.7
2019-05-03T15:00:26.046Z,94863.5